createdAt,value
2022-10-04T00:00:49.320Z,10.91
2022-10-04T00:03:47.349Z,11.00
2022-10-04T00:06:24.221Z,10.95
2022-10-04T00:08:57.342Z,10.88
2022-10-04T00:11:36.447Z,10.96
2022-10-04T00:14:50.857Z,10.96
2022-10-04T00:17:24.802Z,10.80
2022-10-04T00:19:52.222Z,10.83
2022-10-04T00:22:27.426Z,10.64
2022-10-04T00:25:13.635Z,10.62
2022-10-04T00:28:01.089Z,10.47
2022-10-04T00:30:37.804Z,10.52
2022-10-04T00:33:04.720Z,10.35
2022-10-04T00:35:31.167Z,10.35
2022-10-04T00:38:06.905Z,10.39
2022-10-04T00:40:46.493Z,10.43
2022-10-04T00:43:29.661Z,10.50
2022-10-04T00:46:04.259Z,10.45
2022-10-04T00:48:34.598Z,10.58
2022-10-04T00:51:11.911Z,10.56
2022-10-04T00:54:07.541Z,10.51
2022-10-04T00:56:44.326Z,10.51
2022-10-04T00:59:26.079Z,10.50
2022-10-04T01:02:02.697Z,10.45
2022-10-04T01:04:38.790Z,10.53
2022-10-04T01:07:06.907Z,10.44
2022-10-04T01:09:39.754Z,10.37
2022-10-04T01:12:17.024Z,10.36
2022-10-04T01:14:55.798Z,10.41
2022-10-04T01:17:22.647Z,10.39
2022-10-04T01:19:52.325Z,10.39
2022-10-04T01:22:55.807Z,10.33
2022-10-04T01:25:47.455Z,10.29
2022-10-04T01:28:14.811Z,10.31
2022-10-04T01:30:42.364Z,10.34
2022-10-04T01:33:09.262Z,10.35
2022-10-04T01:35:36.013Z,10.22
2022-10-04T01:38:07.277Z,10.33
2022-10-04T01:40:36.828Z,10.33
2022-10-04T01:43:10.024Z,10.37
2022-10-04T01:45:48.014Z,10.32
2022-10-04T01:48:23.319Z,10.26
2022-10-04T01:51:07.739Z,10.22
2022-10-04T01:53:47.768Z,10.17
2022-10-04T01:56:18.941Z,10.17
2022-10-04T01:58:59.008Z,10.19
2022-10-04T02:01:39.516Z,10.20
2022-10-04T02:04:18.576Z,10.14
2022-10-04T02:06:54.320Z,10.19
2022-10-04T02:09:31.816Z,10.25
2022-10-04T02:11:59.668Z,10.25
2022-10-04T02:14:32.072Z,10.25
2022-10-04T02:17:05.600Z,10.27
2022-10-04T02:19:39.083Z,10.29
2022-10-04T02:22:09.292Z,10.29
2022-10-04T02:24:40.872Z,10.23
2022-10-04T02:27:07.504Z,10.33
2022-10-04T02:29:37.263Z,10.29
2022-10-04T02:32:27.157Z,10.33
2022-10-04T02:34:55.927Z,10.35
2022-10-04T02:37:25.117Z,10.36
2022-10-04T02:40:18.497Z,10.40
2022-10-04T02:42:55.302Z,10.37
2022-10-04T02:45:37.720Z,10.36
2022-10-04T02:48:39.929Z,10.33
2022-10-04T02:51:30.903Z,10.37
2022-10-04T02:54:02.913Z,10.35
2022-10-04T02:56:30.262Z,10.32
2022-10-04T02:59:02.066Z,10.21
2022-10-04T03:01:43.941Z,10.19
2022-10-04T03:04:15.081Z,10.22
2022-10-04T03:06:45.955Z,10.18
2022-10-04T03:09:14.879Z,10.09
2022-10-04T03:11:42.821Z,10.10
2022-10-04T03:14:14.876Z,10.09
2022-10-04T03:16:44.676Z,10.18
2022-10-04T03:19:12.823Z,10.17
2022-10-04T03:21:40.939Z,10.15
2022-10-04T03:24:18.138Z,10.36
2022-10-04T03:26:54.983Z,10.21
2022-10-04T03:29:24.214Z,9.91
2022-10-04T03:31:52.980Z,10.00
2022-10-04T03:34:40.075Z,9.87
2022-10-04T03:37:12.175Z,9.75
2022-10-04T03:39:45.932Z,9.61
2022-10-04T03:42:18.857Z,9.69
2022-10-04T03:44:51.470Z,9.81
2022-10-04T03:47:22.654Z,10.01
2022-10-04T03:49:51.163Z,10.28
2022-10-04T03:52:48.051Z,10.20
2022-10-04T03:55:16.134Z,9.96
2022-10-04T03:57:42.999Z,10.10
2022-10-04T04:00:19.823Z,10.35
2022-10-04T04:03:00.421Z,10.24
2022-10-04T04:05:35.552Z,10.16
2022-10-04T04:08:12.727Z,10.18
2022-10-04T04:10:46.417Z,10.27
2022-10-04T04:13:21.596Z,10.40
2022-10-04T04:15:48.227Z,10.41
2022-10-04T04:18:26.139Z,10.26
2022-10-04T04:20:59.023Z,10.32
2022-10-04T04:23:36.582Z,10.15
2022-10-04T04:26:27.386Z,9.90
2022-10-04T04:29:05.660Z,9.91
2022-10-04T04:31:38.588Z,9.83
2022-10-04T04:34:18.636Z,9.69
2022-10-04T04:36:45.517Z,9.81
2022-10-04T04:39:36.704Z,9.81
2022-10-04T04:42:10.476Z,9.81
2022-10-04T04:44:51.206Z,9.82
2022-10-04T04:47:42.983Z,9.84
2022-10-04T04:50:17.165Z,9.91
2022-10-04T04:53:16.343Z,9.88
2022-10-04T04:56:03.919Z,9.85
2022-10-04T04:58:40.332Z,9.72
2022-10-04T05:01:22.309Z,9.65
2022-10-04T05:04:10.004Z,9.87
2022-10-04T05:06:39.789Z,9.81
2022-10-04T05:09:22.147Z,9.72
2022-10-04T05:11:49.650Z,9.66
2022-10-04T05:14:17.967Z,9.70
2022-10-04T05:16:49.562Z,9.66
2022-10-04T05:19:24.964Z,9.67
2022-10-04T05:21:56.795Z,9.64
2022-10-04T05:24:23.298Z,9.81
2022-10-04T05:27:04.208Z,9.81
2022-10-04T05:29:38.274Z,9.91
2022-10-04T05:32:26.135Z,9.90
2022-10-04T05:34:54.568Z,9.88
2022-10-04T05:37:29.602Z,9.87
2022-10-04T05:40:15.982Z,9.84
2022-10-04T05:42:46.801Z,9.77
2022-10-04T05:45:23.418Z,9.77
2022-10-04T05:47:52.423Z,9.72
2022-10-04T05:50:35.918Z,9.80
2022-10-04T05:53:26.020Z,9.94
2022-10-04T05:56:17.088Z,10.03
2022-10-04T05:58:58.599Z,10.06
2022-10-04T06:01:50.531Z,10.04
2022-10-04T06:04:17.676Z,9.99
2022-10-04T06:07:02.903Z,9.96
2022-10-04T06:10:05.079Z,10.03
2022-10-04T06:12:53.429Z,10.00
2022-10-04T06:15:56.827Z,9.98
2022-10-04T06:18:45.665Z,9.95
2022-10-04T06:21:46.296Z,10.11
2022-10-04T06:24:19.072Z,10.10
2022-10-04T06:26:53.872Z,10.01
2022-10-04T06:29:28.280Z,10.07
2022-10-04T06:32:24.061Z,10.20
2022-10-04T06:35:08.759Z,10.40
2022-10-04T06:38:00.173Z,10.42
2022-10-04T06:40:40.133Z,10.45
2022-10-04T06:43:32.298Z,10.47
2022-10-04T06:46:23.054Z,10.82
2022-10-04T06:49:11.471Z,10.92
2022-10-04T06:52:21.123Z,10.85
2022-10-04T06:55:42.054Z,11.06
2022-10-04T06:58:36.363Z,10.98
2022-10-04T07:01:17.611Z,11.14
2022-10-04T07:03:55.614Z,11.15
2022-10-04T07:06:30.980Z,11.21
2022-10-04T07:09:02.962Z,11.28
2022-10-04T07:11:43.899Z,11.39
2022-10-04T07:14:16.991Z,11.46
2022-10-04T07:16:49.244Z,11.62
2022-10-04T07:19:27.831Z,11.78
2022-10-04T07:22:00.354Z,11.84
2022-10-04T07:25:08.578Z,11.98
2022-10-04T07:28:16.877Z,11.96
2022-10-04T07:31:28.153Z,12.03
2022-10-04T07:34:09.678Z,12.18
2022-10-04T07:36:56.918Z,12.29
2022-10-04T07:39:45.757Z,12.39
2022-10-04T07:42:50.568Z,12.47
2022-10-04T07:45:29.704Z,12.46
2022-10-04T07:48:05.339Z,12.48
2022-10-04T07:50:39.613Z,12.63
2022-10-04T07:53:16.243Z,12.72
2022-10-04T07:55:45.562Z,12.80
2022-10-04T07:58:36.590Z,12.71
2022-10-04T08:01:48.332Z,12.75
2022-10-04T08:04:37.498Z,12.76
2022-10-04T08:07:17.763Z,12.72
2022-10-04T08:10:00.702Z,12.84
2022-10-04T08:12:51.965Z,12.81
2022-10-04T08:15:21.518Z,13.15
2022-10-04T08:18:17.206Z,13.05
2022-10-04T08:20:55.902Z,12.96
2022-10-04T08:23:48.794Z,13.14
2022-10-04T08:26:37.268Z,13.17
2022-10-04T08:29:42.995Z,13.07
2022-10-04T08:32:37.398Z,13.03
2022-10-04T08:35:32.767Z,13.26
2022-10-04T08:38:17.949Z,13.40
2022-10-04T08:41:08.945Z,13.43
2022-10-04T08:44:05.243Z,13.58
2022-10-04T08:47:21.751Z,13.54
2022-10-04T08:50:24.486Z,13.86
2022-10-04T08:53:13.173Z,14.05
2022-10-04T08:56:02.297Z,14.04
2022-10-04T08:59:02.325Z,14.35
2022-10-04T09:01:48.398Z,14.57
2022-10-04T09:04:45.100Z,14.79
2022-10-04T09:07:23.722Z,14.87
2022-10-04T09:10:34.765Z,15.00
2022-10-04T09:13:36.539Z,14.99
2022-10-04T09:16:11.922Z,15.19
2022-10-04T09:18:50.692Z,15.18
2022-10-04T09:21:47.465Z,15.34
2022-10-04T09:24:51.830Z,15.85
2022-10-04T09:27:55.969Z,16.51
2022-10-04T09:30:36.655Z,17.06
2022-10-04T09:33:06.163Z,17.62
2022-10-04T09:35:47.871Z,18.36
2022-10-04T09:38:36.016Z,19.36
2022-10-04T09:41:20.607Z,20.41
2022-10-04T09:44:08.638Z,21.68
2022-10-04T09:46:57.504Z,22.44
2022-10-04T09:49:55.066Z,23.02
2022-10-04T09:52:50.008Z,23.05
2022-10-04T09:55:25.341Z,23.03
2022-10-04T09:58:21.165Z,23.40
2022-10-04T10:01:11.705Z,24.09
2022-10-04T10:03:52.150Z,24.13
2022-10-04T10:06:36.730Z,24.83
2022-10-04T10:09:48.658Z,25.21
2022-10-04T10:12:37.006Z,25.73
2022-10-04T10:15:45.871Z,25.89
2022-10-04T10:18:18.013Z,26.12
2022-10-04T10:20:50.805Z,26.41
2022-10-04T10:23:30.440Z,26.40
2022-10-04T10:26:01.538Z,26.48
2022-10-04T10:28:51.925Z,26.27
2022-10-04T10:32:02.981Z,25.61
2022-10-04T10:34:48.981Z,25.47
2022-10-04T10:37:31.014Z,25.82
2022-10-04T10:40:20.998Z,25.37
2022-10-04T10:43:25.437Z,25.15
2022-10-04T10:46:10.999Z,25.35
2022-10-04T10:49:22.485Z,25.73
2022-10-04T10:52:34.223Z,26.12
2022-10-04T10:55:32.747Z,26.72
2022-10-04T10:58:17.671Z,26.64
2022-10-04T11:01:02.864Z,26.67
2022-10-04T11:03:53.801Z,26.55
2022-10-04T11:06:50.618Z,26.15
2022-10-04T11:09:23.177Z,26.26
2022-10-04T11:12:20.499Z,26.37
2022-10-04T11:14:56.136Z,26.66
2022-10-04T11:17:29.208Z,26.67
2022-10-04T11:19:56.266Z,26.75
2022-10-04T11:23:06.237Z,26.66
2022-10-04T11:25:57.658Z,26.97
2022-10-04T11:28:58.794Z,27.20
2022-10-04T11:31:50.568Z,27.07
2022-10-04T11:34:47.989Z,27.52
2022-10-04T11:37:20.684Z,28.11
2022-10-04T11:39:50.583Z,27.83
2022-10-04T11:42:52.928Z,27.72
2022-10-04T11:45:19.448Z,28.32
2022-10-04T11:48:11.282Z,28.66
2022-10-04T11:51:09.225Z,28.98
2022-10-04T11:54:03.705Z,28.89
2022-10-04T11:56:40.990Z,29.03
2022-10-04T11:59:22.850Z,29.07
2022-10-04T12:02:20.353Z,29.90
2022-10-04T12:05:16.110Z,30.59
2022-10-04T12:07:51.964Z,31.25
2022-10-04T12:10:24.468Z,31.83
2022-10-04T12:13:09.295Z,32.04
2022-10-04T12:15:58.465Z,32.36
2022-10-04T12:18:37.155Z,31.86
2022-10-04T12:21:23.758Z,31.47
2022-10-04T12:24:05.422Z,31.83
2022-10-04T12:26:44.671Z,32.14
2022-10-04T12:29:49.573Z,31.53
2022-10-04T12:32:46.272Z,31.76
2022-10-04T12:35:31.111Z,31.85
2022-10-04T12:38:01.514Z,32.05
2022-10-04T12:40:37.300Z,32.39
2022-10-04T12:43:22.945Z,32.52
2022-10-04T12:46:17.929Z,32.75
2022-10-04T12:49:04.235Z,32.73
2022-10-04T12:51:53.122Z,32.47
2022-10-04T12:54:42.696Z,32.45
2022-10-04T12:57:40.035Z,32.19
2022-10-04T13:00:28.838Z,31.80
2022-10-04T13:03:18.959Z,31.75
2022-10-04T13:05:52.723Z,31.57
2022-10-04T13:08:34.512Z,31.72
2022-10-04T13:11:09.821Z,31.91
2022-10-04T13:14:10.887Z,32.01
2022-10-04T13:17:30.374Z,32.15
2022-10-04T13:20:27.172Z,32.02
2022-10-04T13:23:15.103Z,32.13
2022-10-04T13:26:03.343Z,32.12
2022-10-04T13:28:50.742Z,32.05
2022-10-04T13:31:34.916Z,31.78
2022-10-04T13:34:27.992Z,31.65
2022-10-04T13:37:21.949Z,30.93
2022-10-04T13:40:23.269Z,30.33
2022-10-04T13:43:31.153Z,30.34
2022-10-04T13:46:21.436Z,29.72
2022-10-04T13:49:03.564Z,29.17
2022-10-04T13:52:19.619Z,28.75
2022-10-04T13:55:29.397Z,28.29
2022-10-04T13:58:11.605Z,28.72
2022-10-04T14:01:05.898Z,29.19
2022-10-04T14:03:59.063Z,29.17
2022-10-04T14:06:52.796Z,29.04
2022-10-04T14:09:33.795Z,28.86
2022-10-04T14:12:23.658Z,28.16
2022-10-04T14:15:16.208Z,28.23
2022-10-04T14:18:24.734Z,28.51
2022-10-04T14:21:32.143Z,28.49
2022-10-04T14:24:19.612Z,28.30
2022-10-04T14:27:00.521Z,28.38
2022-10-04T14:29:43.342Z,28.54
2022-10-04T14:32:36.307Z,28.91
2022-10-04T14:35:19.235Z,28.97
2022-10-04T14:38:11.712Z,29.14
2022-10-04T14:41:02.659Z,29.47
2022-10-04T14:44:04.589Z,29.50
2022-10-04T14:47:06.950Z,29.43
2022-10-04T14:50:00.632Z,29.43
2022-10-04T14:52:52.867Z,29.41
2022-10-04T14:55:52.878Z,29.32
2022-10-04T14:58:41.304Z,29.17
2022-10-04T15:01:21.422Z,29.15
2022-10-04T15:03:49.341Z,29.20
2022-10-04T15:06:49.894Z,29.11
2022-10-04T15:09:49.190Z,28.95
2022-10-04T15:12:51.781Z,28.76
2022-10-04T15:15:31.119Z,28.48
2022-10-04T15:18:04.151Z,28.16
2022-10-04T15:20:33.209Z,28.02
2022-10-04T15:23:38.935Z,27.59
2022-10-04T15:26:32.195Z,27.04
2022-10-04T15:29:07.011Z,26.69
2022-10-04T15:31:55.399Z,26.26
2022-10-04T15:34:37.732Z,25.94
2022-10-04T15:37:21.091Z,25.67
2022-10-04T15:40:15.531Z,25.39
2022-10-04T15:43:24.586Z,25.07
2022-10-04T15:46:10.160Z,24.84
2022-10-04T15:48:36.843Z,24.63
2022-10-04T15:51:11.267Z,24.41
2022-10-04T15:53:40.342Z,24.11
2022-10-04T15:56:32.408Z,23.89
2022-10-04T15:59:53.690Z,23.63
2022-10-04T16:02:35.593Z,23.51
2022-10-04T16:05:19.816Z,23.28
2022-10-04T16:10:48.438Z,23.02
2022-10-04T16:13:44.713Z,22.70
2022-10-04T16:16:21.053Z,22.48
2022-10-04T16:19:09.948Z,22.31
2022-10-04T16:22:07.842Z,22.20
2022-10-04T16:24:41.275Z,21.96
2022-10-04T16:27:22.798Z,21.78
2022-10-04T16:30:28.247Z,21.67
2022-10-04T16:33:10.446Z,21.53
2022-10-04T16:35:52.585Z,21.39
2022-10-04T16:38:25.707Z,21.34
2022-10-04T16:40:52.202Z,21.32
2022-10-04T16:43:19.982Z,21.14
2022-10-04T16:46:06.025Z,21.21
2022-10-04T16:49:05.364Z,21.18
2022-10-04T16:51:31.892Z,21.08
2022-10-04T16:54:52.405Z,21.02
2022-10-04T16:57:22.487Z,20.81
2022-10-04T17:00:19.789Z,20.83
2022-10-04T17:03:11.892Z,20.77
2022-10-04T17:06:02.028Z,20.61
2022-10-04T17:08:44.177Z,20.58
2022-10-04T17:11:35.802Z,20.39
2022-10-04T17:14:24.985Z,20.16
2022-10-04T17:16:58.342Z,20.08
2022-10-04T17:19:35.668Z,20.00
2022-10-04T17:22:20.485Z,19.82
2022-10-04T17:25:32.753Z,19.68
2022-10-04T17:28:14.658Z,19.57
2022-10-04T17:31:36.887Z,19.44
2022-10-04T17:34:23.008Z,19.31
2022-10-04T17:36:56.125Z,19.22
2022-10-04T17:39:34.782Z,19.22
2022-10-04T17:42:36.735Z,19.23
2022-10-04T17:45:40.957Z,19.05
2022-10-04T17:52:22.866Z,18.83
2022-10-04T17:55:16.971Z,18.62
2022-10-04T17:57:55.988Z,18.58
2022-10-04T18:00:28.578Z,18.48
2022-10-04T18:03:21.856Z,18.40
2022-10-04T18:05:55.653Z,18.36
2022-10-04T18:08:59.408Z,18.28
2022-10-04T18:11:34.580Z,18.18
2022-10-04T18:14:14.141Z,18.14
2022-10-04T18:16:54.785Z,18.02
2022-10-04T18:19:30.387Z,17.99
2022-10-04T18:22:22.925Z,17.94
2022-10-04T18:25:14.310Z,17.96
2022-10-04T18:28:07.137Z,17.90
2022-10-04T18:30:40.629Z,17.85
2022-10-04T18:33:15.584Z,17.77
2022-10-04T18:36:05.259Z,17.73
2022-10-04T18:38:34.963Z,17.59
2022-10-04T18:41:23.634Z,17.53
2022-10-04T18:44:05.868Z,17.45
2022-10-04T18:46:44.447Z,17.29
2022-10-04T18:49:26.920Z,17.23
2022-10-04T18:52:12.226Z,17.19
2022-10-04T18:54:46.500Z,17.15
2022-10-04T18:57:24.458Z,17.06
2022-10-04T19:00:30.876Z,16.89
2022-10-04T19:03:12.358Z,16.94
2022-10-04T19:06:06.814Z,16.86
2022-10-04T19:09:07.177Z,16.84
2022-10-04T19:11:36.751Z,16.73
2022-10-04T19:14:14.492Z,16.62
2022-10-04T19:17:03.080Z,16.49
2022-10-04T19:19:41.394Z,16.46
2022-10-04T19:22:35.715Z,16.39
2022-10-04T19:25:30.069Z,16.27
2022-10-04T19:28:07.917Z,16.24
2022-10-04T19:31:08.698Z,16.24
2022-10-04T19:33:41.146Z,16.14
2022-10-04T19:36:45.587Z,16.12
2022-10-04T19:39:49.695Z,16.02
2022-10-04T19:42:27.426Z,15.95
2022-10-04T19:45:08.212Z,15.85
2022-10-04T19:47:43.978Z,15.81
2022-10-04T19:50:17.829Z,15.75
2022-10-04T19:52:56.416Z,15.68
2022-10-04T19:55:32.163Z,15.69
2022-10-04T19:58:24.738Z,15.62
2022-10-04T20:00:51.308Z,15.52
2022-10-04T20:03:17.860Z,15.32
2022-10-04T20:05:47.487Z,15.40
2022-10-04T20:08:36.716Z,15.44
2022-10-04T20:11:20.372Z,15.50
2022-10-04T20:14:07.117Z,15.56
2022-10-04T20:16:49.503Z,15.56
2022-10-04T20:19:29.459Z,15.55
2022-10-04T20:21:56.927Z,15.58
2022-10-04T20:24:39.190Z,15.55
2022-10-04T20:27:09.194Z,15.51
2022-10-04T20:29:38.422Z,15.47
2022-10-04T20:32:08.376Z,15.28
2022-10-04T20:34:37.748Z,15.44
2022-10-04T20:37:08.876Z,15.38
2022-10-04T20:39:41.444Z,15.37
2022-10-04T20:42:29.805Z,15.30
2022-10-04T20:45:01.864Z,15.28
2022-10-04T20:47:37.274Z,15.26
2022-10-04T20:50:07.811Z,15.18
2022-10-04T20:52:36.824Z,15.15
2022-10-04T20:55:16.578Z,15.12
2022-10-04T20:57:43.073Z,15.04
2022-10-04T21:00:21.425Z,15.05
2022-10-04T21:02:48.477Z,15.06
2022-10-04T21:05:27.151Z,14.99
2022-10-04T21:08:32.556Z,14.86
2022-10-04T21:11:20.785Z,14.81
2022-10-04T21:13:50.309Z,14.78
2022-10-04T21:16:40.086Z,14.84
2022-10-04T21:19:35.831Z,14.87
2022-10-04T21:22:02.290Z,14.92
2022-10-04T21:24:50.566Z,14.87
2022-10-04T21:27:34.375Z,14.84
2022-10-04T21:30:03.459Z,14.80
2022-10-04T21:32:35.775Z,14.77
2022-10-04T21:35:03.698Z,14.66
2022-10-04T21:37:30.897Z,14.59
2022-10-04T21:40:00.506Z,14.53
2022-10-04T21:42:27.517Z,14.50
2022-10-04T21:44:54.085Z,14.48
2022-10-04T21:47:23.830Z,14.30
2022-10-04T21:49:52.094Z,14.33
2022-10-04T21:52:18.853Z,14.27
2022-10-04T21:54:46.002Z,14.23
2022-10-04T21:57:13.443Z,14.23
2022-10-04T21:59:40.052Z,14.13
2022-10-04T22:02:07.785Z,14.19
2022-10-04T22:04:34.394Z,14.15
2022-10-04T22:07:00.983Z,14.13
2022-10-04T22:09:27.459Z,14.08
2022-10-04T22:11:54.179Z,14.08
2022-10-04T22:14:20.695Z,14.00
2022-10-04T22:16:47.517Z,14.07
2022-10-04T22:19:14.250Z,14.01
2022-10-04T22:21:40.752Z,14.07
2022-10-04T22:24:17.861Z,14.03
2022-10-04T22:26:45.379Z,14.10
2022-10-04T22:29:17.443Z,14.06
2022-10-04T22:31:50.775Z,14.10
2022-10-04T22:34:20.379Z,13.97
2022-10-04T22:36:49.559Z,14.02
2022-10-04T22:39:18.707Z,14.06
2022-10-04T22:41:53.728Z,14.00
2022-10-04T22:44:26.507Z,13.90
2022-10-04T22:46:55.450Z,13.86
2022-10-04T22:49:25.386Z,13.88
2022-10-04T22:51:54.418Z,13.88
2022-10-04T22:54:24.147Z,13.86
2022-10-04T22:56:51.551Z,13.86
2022-10-04T22:59:22.353Z,13.63
2022-10-04T23:01:48.884Z,13.37
2022-10-04T23:04:21.687Z,13.24
2022-10-04T23:06:48.930Z,13.02
2022-10-04T23:09:16.092Z,13.04
2022-10-04T23:11:43.166Z,12.88
2022-10-04T23:14:10.047Z,12.87
2022-10-04T23:16:37.215Z,12.85
2022-10-04T23:19:12.087Z,12.77
2022-10-04T23:21:40.032Z,12.71
2022-10-04T23:24:12.697Z,12.58
2022-10-04T23:26:40.467Z,12.56
2022-10-04T23:29:17.037Z,12.66
2022-10-04T23:31:43.711Z,12.75
2022-10-04T23:34:18.893Z,12.76
2022-10-04T23:36:48.617Z,13.06
2022-10-04T23:39:30.212Z,13.24
2022-10-04T23:41:57.358Z,13.47
2022-10-04T23:44:28.943Z,13.56
2022-10-04T23:46:55.969Z,13.57
2022-10-04T23:49:22.761Z,13.38
2022-10-04T23:51:57.487Z,13.34
2022-10-04T23:54:24.555Z,13.23
2022-10-04T23:56:51.553Z,13.14
2022-10-04T23:59:20.746Z,13.08
